Albany, New York
Traffic Map
Current Weather Conditions
Albany, New York
Overcast
Overcast
63°
Feels Like: 63°
Wind Chill: 63° Ceiling: 900
Heat Index: 63° Visibility: 10mi
Dew Point: 59° Wind: 3mph
Humidity: 87% Direction: 10° (N)
Pressure: 29.89in Gusts: 0mph
Raw Report DataKALB 191009Z 01003KT 10SM BKN009 OVC044 17/15 A2989 RMK AO2 T01720150
Traffic Incident Summary
Active as of:
Severity:
Category:
InformationThere was an issue retrieving the traffic information for this location. Please try a different location or try again shortly.
Advertisements